createdAt,value
2022-10-04T00:01:11.650Z,97223.53
2022-10-04T00:03:45.971Z,97222.31
2022-10-04T00:06:22.578Z,97227.28
2022-10-04T00:08:54.975Z,97225.03
2022-10-04T00:11:29.368Z,97215.66
2022-10-04T00:14:00.786Z,97212.53
2022-10-04T00:16:34.087Z,97209.06
2022-10-04T00:19:25.498Z,97205.31
2022-10-04T00:22:28.562Z,97214.69
2022-10-04T00:25:20.814Z,97213.88
2022-10-04T00:28:29.298Z,97213.44
2022-10-04T00:31:18.117Z,97210.34
2022-10-04T00:33:49.765Z,97211.19
2022-10-04T00:36:46.611Z,97215.94
2022-10-04T00:39:26.593Z,97211.19
2022-10-04T00:42:06.171Z,97214.94
2022-10-04T00:44:42.873Z,97206.84
2022-10-04T00:47:21.949Z,97204.53
2022-10-04T00:49:56.562Z,97212.63
2022-10-04T00:52:30.219Z,97181.50
2022-10-04T00:55:04.175Z,97206.00
2022-10-04T00:57:36.736Z,97210.38
2022-10-04T01:00:09.928Z,97184.81
2022-10-04T01:02:47.900Z,97197.03
2022-10-04T01:05:20.199Z,97201.00
2022-10-04T01:07:56.432Z,97203.69
2022-10-04T01:10:28.927Z,97197.06
2022-10-04T01:13:06.149Z,97192.91
2022-10-04T01:15:44.031Z,97186.91
2022-10-04T01:18:17.031Z,97181.28
2022-10-04T01:20:55.969Z,97180.25
2022-10-04T01:23:54.649Z,97183.38
2022-10-04T01:26:43.556Z,97188.56
2022-10-04T01:29:15.751Z,97184.63
2022-10-04T01:31:46.431Z,97185.25
2022-10-04T01:34:18.224Z,97179.84
2022-10-04T01:36:49.061Z,97180.88
2022-10-04T01:39:20.857Z,97182.75
2022-10-04T01:41:55.921Z,97173.81
2022-10-04T01:44:32.170Z,97169.28
2022-10-04T01:47:07.628Z,97179.47
2022-10-04T01:49:40.093Z,97179.25
2022-10-04T01:52:16.396Z,97162.84
2022-10-04T01:54:51.595Z,97161.63
2022-10-04T01:57:23.861Z,97161.00
2022-10-04T01:59:58.675Z,97170.34
2022-10-04T02:02:35.259Z,97169.72
2022-10-04T02:05:07.993Z,97167.41
2022-10-04T02:07:39.027Z,97158.50
2022-10-04T02:10:13.790Z,97154.56
2022-10-04T02:12:47.333Z,97155.81
2022-10-04T02:15:17.725Z,97161.63
2022-10-04T02:17:46.551Z,97151.88
2022-10-04T02:20:18.593Z,97150.00
2022-10-04T02:22:52.142Z,97150.22
2022-10-04T02:25:22.693Z,97151.22
2022-10-04T02:27:56.268Z,97143.56
2022-10-04T02:30:25.897Z,97144.59
2022-10-04T02:33:00.677Z,97154.97
2022-10-04T02:35:35.711Z,97161.59
2022-10-04T02:38:11.709Z,97160.75
2022-10-04T02:40:49.233Z,97160.34
2022-10-04T02:43:22.560Z,97154.50
2022-10-04T02:45:53.845Z,97148.28
2022-10-04T02:48:34.864Z,97138.13
2022-10-04T02:51:16.169Z,97127.75
2022-10-04T02:53:54.422Z,97127.56
2022-10-04T02:56:25.513Z,97122.16
2022-10-04T02:58:55.704Z,97141.03
2022-10-04T03:01:29.456Z,97137.94
2022-10-04T03:03:59.780Z,97145.81
2022-10-04T03:06:32.949Z,97151.84
2022-10-04T03:09:05.109Z,97153.91
2022-10-04T03:11:38.279Z,97161.56
2022-10-04T03:14:14.156Z,97147.47
2022-10-04T03:16:46.376Z,97158.84
2022-10-04T03:19:18.076Z,97148.91
2022-10-04T03:21:50.691Z,97139.16
2022-10-04T03:24:22.692Z,97140.41
2022-10-04T03:26:56.497Z,97135.44
2022-10-04T03:29:27.733Z,97141.25
2022-10-04T03:31:58.794Z,97144.13
2022-10-04T03:34:36.551Z,97140.19
2022-10-04T03:37:08.604Z,97138.31
2022-10-04T03:39:40.746Z,97136.25
2022-10-04T03:42:16.496Z,97136.66
2022-10-04T03:44:46.824Z,97140.38
2022-10-04T03:47:20.937Z,97136.66
2022-10-04T03:49:52.204Z,97123.81
2022-10-04T03:52:25.644Z,97128.75
2022-10-04T03:54:58.494Z,97125.84
2022-10-04T03:57:29.877Z,97126.88
2022-10-04T03:59:59.839Z,97124.19
2022-10-04T04:02:35.479Z,97133.75
2022-10-04T04:05:12.012Z,97137.69
2022-10-04T04:07:46.856Z,97143.47
2022-10-04T04:10:23.859Z,97140.97
2022-10-04T04:12:58.378Z,97141.56
2022-10-04T04:15:31.517Z,97148.44
2022-10-04T04:18:04.560Z,97139.91
2022-10-04T04:20:36.170Z,97127.84
2022-10-04T04:23:14.013Z,97123.31
2022-10-04T04:25:45.989Z,97118.97
2022-10-04T04:28:27.028Z,97124.34
2022-10-04T04:31:01.614Z,97130.38
2022-10-04T04:33:35.240Z,97140.91
2022-10-04T04:36:08.473Z,97143.16
2022-10-04T04:38:57.003Z,97147.56
2022-10-04T04:41:28.325Z,97115.41
2022-10-04T04:43:58.972Z,97132.22
2022-10-04T04:46:29.587Z,97129.53
2022-10-04T04:49:02.619Z,97133.25
2022-10-04T04:51:34.471Z,97134.94
2022-10-04T04:54:05.796Z,97144.03
2022-10-04T04:56:36.663Z,97142.34
2022-10-04T04:59:09.179Z,97128.63
2022-10-04T05:01:45.552Z,97123.25
2022-10-04T05:04:21.447Z,97110.00
2022-10-04T05:07:01.007Z,97113.75
2022-10-04T05:09:32.550Z,97123.47
2022-10-04T05:12:08.795Z,97120.56
2022-10-04T05:14:42.524Z,97124.09
2022-10-04T05:17:20.163Z,97133.03
2022-10-04T05:19:49.129Z,97137.13
2022-10-04T05:22:22.620Z,97133.44
2022-10-04T05:24:54.972Z,97125.16
2022-10-04T05:27:30.123Z,97119.97
2022-10-04T05:30:07.395Z,97137.16
2022-10-04T05:32:50.228Z,97136.34
2022-10-04T05:35:20.610Z,97140.09
2022-10-04T05:38:00.247Z,97137.44
2022-10-04T05:40:39.452Z,97143.25
2022-10-04T05:43:23.642Z,97140.53
2022-10-04T05:46:23.415Z,97145.72
2022-10-04T05:48:56.121Z,97148.22
2022-10-04T05:51:28.046Z,97144.47
2022-10-04T05:53:59.138Z,97140.13
2022-10-04T05:56:49.749Z,97139.09
2022-10-04T05:59:37.266Z,97134.31
2022-10-04T06:02:22.783Z,97126.84
2022-10-04T06:05:09.551Z,97124.38
2022-10-04T06:07:43.003Z,97134.50
2022-10-04T06:10:40.711Z,97154.81
2022-10-04T06:13:19.153Z,97155.69
2022-10-04T06:16:12.896Z,97147.84
2022-10-04T06:19:03.865Z,97149.72
2022-10-04T06:21:42.571Z,97151.38
2022-10-04T06:24:15.806Z,97152.81
2022-10-04T06:26:48.698Z,97156.59
2022-10-04T06:29:20.648Z,97144.97
2022-10-04T06:32:15.879Z,97139.78
2022-10-04T06:35:18.168Z,97154.50
2022-10-04T06:38:23.629Z,97161.38
2022-10-04T06:41:08.435Z,97154.94
2022-10-04T06:43:51.646Z,97160.34
2022-10-04T06:46:28.192Z,97157.84
2022-10-04T06:49:21.212Z,97152.50
2022-10-04T06:52:21.377Z,97145.84
2022-10-04T06:55:15.351Z,97143.56
2022-10-04T06:58:08.964Z,97150.84
2022-10-04T07:00:49.135Z,97142.91
2022-10-04T07:03:26.464Z,97134.41
2022-10-04T07:06:01.020Z,97136.91
2022-10-04T07:08:39.188Z,97147.47
2022-10-04T07:11:15.504Z,97152.47
2022-10-04T07:13:52.351Z,97158.84
2022-10-04T07:16:33.813Z,97163.78
2022-10-04T07:19:13.517Z,97172.72
2022-10-04T07:21:50.591Z,97178.09
2022-10-04T07:24:26.316Z,97195.13
2022-10-04T07:26:57.164Z,97193.84
2022-10-04T07:29:29.178Z,97192.31
2022-10-04T07:32:09.253Z,97171.84
2022-10-04T07:34:44.311Z,97188.69
2022-10-04T07:37:15.415Z,97194.84
2022-10-04T07:39:51.808Z,97205.78
2022-10-04T07:42:27.442Z,97204.31
2022-10-04T07:45:10.209Z,97197.41
2022-10-04T07:47:38.800Z,97197.13
2022-10-04T07:50:23.484Z,97197.91
2022-10-04T07:53:09.611Z,97204.13
2022-10-04T07:55:49.193Z,97196.53
2022-10-04T07:58:33.013Z,97196.06
2022-10-04T08:01:06.171Z,97192.03
2022-10-04T08:03:46.911Z,97184.00
2022-10-04T08:06:22.549Z,97166.47
2022-10-04T08:09:13.623Z,97173.31
2022-10-04T08:11:51.977Z,97172.19
2022-10-04T08:14:29.249Z,97175.88
2022-10-04T08:17:15.655Z,97182.66
2022-10-04T08:19:56.359Z,97186.00
2022-10-04T08:22:36.332Z,97193.38
2022-10-04T08:25:13.651Z,97192.41
2022-10-04T08:28:17.862Z,97187.28
2022-10-04T08:31:18.001Z,97191.69
2022-10-04T08:34:00.676Z,97188.84
2022-10-04T08:36:46.855Z,97185.50
2022-10-04T08:39:35.743Z,97195.88
2022-10-04T08:42:29.197Z,97198.31
2022-10-04T08:45:37.905Z,97207.44
2022-10-04T08:48:51.609Z,97202.03
2022-10-04T08:52:00.208Z,97204.16
2022-10-04T08:54:57.459Z,97169.78
2022-10-04T08:57:54.484Z,97182.06
2022-10-04T09:00:36.787Z,97187.16
2022-10-04T09:03:46.613Z,97193.56
2022-10-04T09:06:34.393Z,97186.69
2022-10-04T09:09:48.035Z,97196.84
2022-10-04T09:12:49.677Z,97195.34
2022-10-04T09:15:31.639Z,97196.16
2022-10-04T09:18:21.575Z,97198.66
2022-10-04T09:21:01.257Z,97205.53
2022-10-04T09:24:05.892Z,97197.94
2022-10-04T09:26:46.055Z,97204.97
2022-10-04T09:29:55.543Z,97197.50
2022-10-04T09:33:04.085Z,97196.44
2022-10-04T09:36:05.196Z,97195.47
2022-10-04T09:39:29.870Z,97202.94
2022-10-04T09:42:15.753Z,97202.69
2022-10-04T09:45:02.790Z,97204.41
2022-10-04T09:47:37.948Z,97203.09
2022-10-04T09:50:26.927Z,97199.34
2022-10-04T09:53:02.859Z,97203.44
2022-10-04T09:55:52.588Z,97199.22
2022-10-04T09:58:51.866Z,97189.94
2022-10-04T10:01:29.544Z,97191.66
2022-10-04T10:04:25.104Z,97194.13
2022-10-04T10:07:12.004Z,97206.75
2022-10-04T10:10:04.479Z,97205.78
2022-10-04T10:13:11.725Z,97207.56
2022-10-04T10:16:00.120Z,97214.16
2022-10-04T10:18:44.099Z,97217.31
2022-10-04T10:21:28.284Z,97213.72
2022-10-04T10:24:17.441Z,97216.53
2022-10-04T10:27:03.575Z,97222.00
2022-10-04T10:29:48.041Z,97219.16
2022-10-04T10:32:48.739Z,97225.44
2022-10-04T10:35:27.944Z,97222.59
2022-10-04T10:38:22.985Z,97225.88
2022-10-04T10:41:31.688Z,97220.47
2022-10-04T10:44:31.101Z,97224.53
2022-10-04T10:47:22.045Z,97218.22
2022-10-04T10:50:25.250Z,97218.94
2022-10-04T10:53:29.458Z,97215.72
2022-10-04T10:56:32.586Z,97214.28
2022-10-04T10:59:42.564Z,97211.16
2022-10-04T11:02:50.330Z,97208.09
2022-10-04T11:05:41.639Z,97199.41
2022-10-04T11:08:35.869Z,97209.41
2022-10-04T11:11:21.157Z,97197.00
2022-10-04T11:14:16.797Z,97195.41
2022-10-04T11:17:24.080Z,97196.31
2022-10-04T11:20:26.221Z,97195.81
2022-10-04T11:23:22.047Z,97202.13
2022-10-04T11:26:08.718Z,97198.88
2022-10-04T11:28:46.857Z,97206.41
2022-10-04T11:31:51.773Z,97205.28
2022-10-04T11:34:52.134Z,97207.50
2022-10-04T11:37:32.403Z,97199.81
2022-10-04T11:40:23.805Z,97205.56
2022-10-04T11:43:12.341Z,97200.09
2022-10-04T11:46:13.682Z,97187.69
2022-10-04T11:48:55.408Z,97190.44
2022-10-04T11:52:02.613Z,97191.00
2022-10-04T11:55:08.225Z,97185.50
2022-10-04T11:57:44.807Z,97181.66
2022-10-04T12:00:17.044Z,97167.38
2022-10-04T12:03:31.452Z,97180.72
2022-10-04T12:06:23.372Z,97167.22
2022-10-04T12:09:06.732Z,97168.91
2022-10-04T12:12:29.895Z,97157.34
2022-10-04T12:15:19.593Z,97160.56
2022-10-04T12:18:19.783Z,97165.94
2022-10-04T12:21:07.494Z,97158.00
2022-10-04T12:24:04.200Z,97155.44
2022-10-04T12:26:51.589Z,97156.31
2022-10-04T12:30:03.116Z,97162.16
2022-10-04T12:32:40.069Z,97160.19
2022-10-04T12:35:24.126Z,97159.50
2022-10-04T12:38:15.226Z,97157.28
2022-10-04T12:40:50.239Z,97146.44
2022-10-04T12:43:25.903Z,97150.38
2022-10-04T12:46:07.518Z,97132.78
2022-10-04T12:48:58.375Z,97138.22
2022-10-04T12:51:39.485Z,97133.56
2022-10-04T12:54:30.319Z,97135.22
2022-10-04T12:57:10.731Z,97123.66
2022-10-04T12:59:53.461Z,97130.94
2022-10-04T13:02:37.001Z,97128.56
2022-10-04T13:05:18.095Z,97123.19
2022-10-04T13:08:17.765Z,97123.66
2022-10-04T13:11:10.971Z,97131.16
2022-10-04T13:14:04.228Z,97123.81
2022-10-04T13:19:44.292Z,97119.91
2022-10-04T13:22:56.095Z,97123.19
2022-10-04T13:26:00.006Z,97130.69
2022-10-04T13:28:39.585Z,97131.00
2022-10-04T13:31:16.012Z,97131.72
2022-10-04T13:33:51.466Z,97129.78
2022-10-04T13:36:30.741Z,97128.28
2022-10-04T13:39:25.378Z,97131.13
2022-10-04T13:42:21.004Z,97125.63
2022-10-04T13:45:06.759Z,97124.41
2022-10-04T13:47:53.044Z,97128.00
2022-10-04T13:50:36.711Z,97122.56
2022-10-04T13:53:37.149Z,97124.72
2022-10-04T13:56:35.168Z,97123.75
2022-10-04T13:59:12.345Z,97136.63
2022-10-04T14:02:34.924Z,97135.06
2022-10-04T14:05:46.816Z,97136.25
2022-10-04T14:08:44.423Z,97125.03
2022-10-04T14:11:48.949Z,97134.91
2022-10-04T14:15:00.460Z,97128.13
2022-10-04T14:18:15.735Z,97125.66
2022-10-04T14:21:23.646Z,97125.00
2022-10-04T14:24:34.893Z,97132.91
2022-10-04T14:27:28.475Z,97131.63
2022-10-04T14:30:07.663Z,97131.63
2022-10-04T14:33:08.236Z,97132.50
2022-10-04T14:35:46.669Z,97134.31
2022-10-04T14:38:39.609Z,97132.78
2022-10-04T14:41:33.940Z,97131.56
2022-10-04T14:44:30.047Z,97135.03
2022-10-04T14:47:13.756Z,97130.69
2022-10-04T14:50:05.179Z,97127.00
2022-10-04T14:52:50.589Z,97133.13
2022-10-04T14:55:49.113Z,97135.97
2022-10-04T14:58:29.549Z,97134.66
2022-10-04T15:01:19.542Z,97137.69
2022-10-04T15:04:13.947Z,97134.81
2022-10-04T15:06:49.379Z,97136.16
2022-10-04T15:09:50.689Z,97128.88
2022-10-04T15:13:10.019Z,97128.78
2022-10-04T15:15:50.989Z,97128.56
2022-10-04T15:18:29.353Z,97129.19
2022-10-04T15:21:02.336Z,97130.75
2022-10-04T15:23:37.954Z,97124.81
2022-10-04T15:26:50.795Z,97127.28
2022-10-04T15:29:29.018Z,97133.13
2022-10-04T15:32:07.651Z,97125.06
2022-10-04T15:34:45.639Z,97117.75
2022-10-04T15:37:25.608Z,97114.28
2022-10-04T15:40:27.641Z,97110.47
2022-10-04T15:43:17.193Z,97110.47
2022-10-04T15:46:03.120Z,97103.56
2022-10-04T15:48:47.770Z,97102.03
2022-10-04T15:51:26.849Z,97108.13
2022-10-04T15:54:17.485Z,97101.50
2022-10-04T15:56:57.141Z,97106.53
2022-10-04T15:59:37.500Z,97100.47
2022-10-04T16:02:27.551Z,97097.94
2022-10-04T16:05:04.508Z,97091.09
2022-10-04T16:08:00.382Z,97085.47
2022-10-04T16:10:48.245Z,97081.16
2022-10-04T16:13:34.476Z,97080.63
2022-10-04T16:16:32.210Z,97071.13
2022-10-04T16:19:12.204Z,97063.88
2022-10-04T16:21:51.970Z,97075.69
2022-10-04T16:24:40.917Z,97082.88
2022-10-04T16:27:43.149Z,97089.50
2022-10-04T16:30:28.440Z,97090.63
2022-10-04T16:33:31.213Z,97093.66
2022-10-04T16:36:10.111Z,97091.72
2022-10-04T16:39:07.677Z,97085.13
2022-10-04T16:41:44.609Z,97088.94
2022-10-04T16:44:32.501Z,97092.47
2022-10-04T16:47:04.360Z,97093.50
2022-10-04T16:49:41.515Z,97095.31
2022-10-04T16:52:27.450Z,97091.84
2022-10-04T16:55:22.691Z,97089.28
2022-10-04T16:58:42.935Z,97088.47
2022-10-04T17:02:03.224Z,97080.47
2022-10-04T17:04:52.185Z,97084.81
2022-10-04T17:07:28.963Z,97083.44
2022-10-04T17:10:03.384Z,97080.59
2022-10-04T17:12:45.535Z,97088.63
2022-10-04T17:15:27.667Z,97076.47
2022-10-04T17:18:13.590Z,97077.44
2022-10-04T17:20:56.745Z,97063.34
2022-10-04T17:23:47.069Z,97079.88
2022-10-04T17:26:31.785Z,97084.91
2022-10-04T17:29:09.951Z,97084.72
2022-10-04T17:31:50.540Z,97095.97
2022-10-04T17:34:31.646Z,97092.59
2022-10-04T17:37:14.344Z,97101.00
2022-10-04T17:39:49.634Z,97097.63
2022-10-04T17:42:30.361Z,97097.66
2022-10-04T17:45:19.847Z,97097.38
2022-10-04T17:48:16.396Z,97095.72
2022-10-04T17:51:12.411Z,97106.28
2022-10-04T17:54:06.133Z,97111.09
2022-10-04T17:56:40.860Z,97107.81
2022-10-04T17:59:14.192Z,97094.53
2022-10-04T18:01:47.300Z,97106.34
2022-10-04T18:04:20.754Z,97115.28
2022-10-04T18:06:53.889Z,97113.63
2022-10-04T18:09:30.579Z,97102.91
2022-10-04T18:12:02.930Z,97106.88
2022-10-04T18:14:51.974Z,97104.59
2022-10-04T18:17:32.967Z,97110.31
2022-10-04T18:20:21.469Z,97098.84
2022-10-04T18:22:59.372Z,97092.53
2022-10-04T18:25:30.439Z,97084.72
2022-10-04T18:28:06.629Z,97105.94
2022-10-04T18:30:52.525Z,97101.84
2022-10-04T18:33:26.413Z,97104.88
2022-10-04T18:36:04.655Z,97096.72
2022-10-04T18:38:35.696Z,97106.03
2022-10-04T18:41:19.275Z,97106.63
2022-10-04T18:43:52.799Z,97104.38
2022-10-04T18:46:23.232Z,97105.16
2022-10-04T18:48:54.872Z,97112.97
2022-10-04T18:51:29.208Z,97113.59
2022-10-04T18:54:15.230Z,97105.59
2022-10-04T18:57:04.597Z,97103.69
2022-10-04T18:59:57.602Z,97103.97
2022-10-04T19:02:35.143Z,97101.00
2022-10-04T19:05:12.173Z,97098.19
2022-10-04T19:07:48.176Z,97104.22
2022-10-04T19:10:26.998Z,97102.47
2022-10-04T19:13:18.123Z,97107.00
2022-10-04T19:16:04.920Z,97104.03
2022-10-04T19:18:48.080Z,97116.81
2022-10-04T19:21:26.786Z,97108.06
2022-10-04T19:24:12.048Z,97103.09
2022-10-04T19:26:45.147Z,97110.25
2022-10-04T19:29:24.726Z,97121.25
2022-10-04T19:31:59.101Z,97122.22
2022-10-04T19:34:40.208Z,97125.69
2022-10-04T19:37:17.728Z,97125.31
2022-10-04T19:39:57.315Z,97127.81
2022-10-04T19:42:35.538Z,97118.25
2022-10-04T19:45:19.460Z,97118.25
2022-10-04T19:47:51.963Z,97117.22
2022-10-04T19:50:24.160Z,97122.06
2022-10-04T19:52:55.382Z,97126.78
2022-10-04T19:55:43.821Z,97137.28
2022-10-04T19:58:38.222Z,97129.72
2022-10-04T20:01:13.073Z,97123.69
2022-10-04T20:03:42.864Z,97123.59
2022-10-04T20:06:21.756Z,97126.19
2022-10-04T20:09:01.944Z,97121.81
2022-10-04T20:11:49.984Z,97119.00
2022-10-04T20:14:55.365Z,97108.59
2022-10-04T20:17:44.244Z,97121.22
2022-10-04T20:20:16.257Z,97122.78
2022-10-04T20:22:57.871Z,97127.28
2022-10-04T20:26:00.318Z,97130.94
2022-10-04T20:28:44.845Z,97124.78
2022-10-04T20:31:47.128Z,97124.63
2022-10-04T20:34:35.440Z,97123.00
2022-10-04T20:37:05.451Z,97116.34
2022-10-04T20:40:01.542Z,97122.47
2022-10-04T20:42:33.989Z,97133.00
2022-10-04T20:45:19.064Z,97134.06
2022-10-04T20:47:49.152Z,97137.50
2022-10-04T20:50:30.691Z,97145.75
2022-10-04T20:53:02.851Z,97147.78
2022-10-04T20:55:33.839Z,97148.22
2022-10-04T20:58:05.122Z,97156.16
2022-10-04T21:00:35.828Z,97154.03
2022-10-04T21:03:22.265Z,97153.66
2022-10-04T21:06:03.891Z,97152.72
2022-10-04T21:08:33.487Z,97154.00
2022-10-04T21:11:44.113Z,97156.50
2022-10-04T21:14:23.924Z,97157.75
2022-10-04T21:16:58.695Z,97155.25
2022-10-04T21:19:46.544Z,97160.56
2022-10-04T21:22:39.858Z,97151.31
2022-10-04T21:25:41.652Z,97165.25
2022-10-04T21:28:32.049Z,97173.09
2022-10-04T21:31:01.052Z,97166.94
2022-10-04T21:33:31.846Z,97173.56
2022-10-04T21:36:00.552Z,97170.84
2022-10-04T21:38:30.893Z,97169.56
2022-10-04T21:40:59.863Z,97165.81
2022-10-04T21:43:29.157Z,97162.59
2022-10-04T21:45:57.834Z,97166.13
2022-10-04T21:48:27.468Z,97167.19
2022-10-04T21:50:56.422Z,97166.13
2022-10-04T21:53:25.662Z,97167.84
2022-10-04T21:55:55.894Z,97173.63
2022-10-04T21:58:24.378Z,97172.59
2022-10-04T22:00:53.639Z,97171.63
2022-10-04T22:03:22.654Z,97170.63
2022-10-04T22:05:51.300Z,97169.28
2022-10-04T22:08:20.323Z,97171.47
2022-10-04T22:10:49.290Z,97161.59
2022-10-04T22:13:19.608Z,97171.09
2022-10-04T22:15:48.101Z,97165.97
2022-10-04T22:18:17.465Z,97164.25
2022-10-04T22:20:47.107Z,97163.19
2022-10-04T22:23:19.176Z,97169.88
2022-10-04T22:25:48.501Z,97169.66
2022-10-04T22:28:23.476Z,97166.63
2022-10-04T22:30:53.671Z,97172.19
2022-10-04T22:33:29.788Z,97171.22
2022-10-04T22:36:00.838Z,97165.56
2022-10-04T22:38:29.317Z,97170.47
2022-10-04T22:40:58.673Z,97164.88
2022-10-04T22:43:28.510Z,97164.88
2022-10-04T22:45:57.364Z,97179.78
2022-10-04T22:48:28.932Z,97183.94
2022-10-04T22:50:57.535Z,97183.88
2022-10-04T22:53:26.395Z,97188.91
2022-10-04T22:55:56.205Z,97184.22
2022-10-04T22:58:25.528Z,97180.97
2022-10-04T23:00:56.760Z,97162.56
2022-10-04T23:03:31.231Z,97172.28
2022-10-04T23:06:02.113Z,97167.47
2022-10-04T23:08:31.710Z,97166.22
2022-10-04T23:11:02.101Z,97175.28
2022-10-04T23:13:31.033Z,97172.16
2022-10-04T23:16:07.878Z,97169.19
2022-10-04T23:18:36.902Z,97168.53
2022-10-04T23:21:20.483Z,97177.44
2022-10-04T23:23:50.697Z,97167.50
2022-10-04T23:26:24.260Z,97185.94
2022-10-04T23:28:53.114Z,97184.94
2022-10-04T23:31:25.632Z,97185.72
2022-10-04T23:33:58.272Z,97182.16
2022-10-04T23:36:27.153Z,97183.19
2022-10-04T23:39:00.580Z,97183.78
2022-10-04T23:41:29.677Z,97171.91
2022-10-04T23:43:59.056Z,97184.16
2022-10-04T23:46:31.681Z,97182.31
2022-10-04T23:49:00.527Z,97176.66
2022-10-04T23:51:29.600Z,97179.16
2022-10-04T23:53:59.642Z,97176.66
2022-10-04T23:56:30.478Z,97168.81
2022-10-04T23:59:00.731Z,97170.00
